Time;durP1;ratioP1;P1;durP2;ratioP2;P2;SDS_P1;SDS_P2;PMS_P1;PMS_P2;Temp;Humidity;BMP_temperature;BMP_pressure;BME280_temperature;BME280_humidity;BME280_pressure;Samples;Min_cycle;Max_cycle;Signal;HPM_P1;HPM_P2
2022/05/04 00:00:04;;;;;;;25.10;19.40;;;11.20;99.90;;;;;;5054351;28;20052;-73
2022/05/04 00:02:31;;;;;;;25.33;20.23;;;11.20;99.90;;;;;;5054482;28;20045;-72
2022/05/04 00:04:58;;;;;;;23.17;17.60;;;11.10;99.90;;;;;;5055317;28;20353;-72
2022/05/04 00:07:25;;;;;;;24.30;18.27;;;11.10;99.90;;;;;;5054335;28;20051;-73
2022/05/04 00:09:52;;;;;;;20.67;16.75;;;11.10;99.90;;;;;;5053910;28;20049;-72
2022/05/04 00:12:19;;;;;;;23.67;16.85;;;11.10;99.90;;;;;;5052977;28;20048;-72
2022/05/04 00:14:46;;;;;;;23.30;18.85;;;11.10;99.90;;;;;;5053862;28;20048;-72
2022/05/04 00:17:13;;;;;;;22.10;16.75;;;11.10;99.90;;;;;;5054136;28;20049;-72
2022/05/04 00:19:40;;;;;;;24.10;18.00;;;11.10;99.90;;;;;;5053819;28;20099;-72
2022/05/04 00:22:07;;;;;;;23.70;17.67;;;11.10;99.90;;;;;;5054079;28;20468;-72
2022/05/04 00:24:34;;;;;;;22.20;17.55;;;11.10;99.90;;;;;;5053779;28;20127;-72
2022/05/04 00:27:00;;;;;;;29.45;18.17;;;11.10;99.90;;;;;;5053848;28;20041;-72
2022/05/04 00:29:27;;;;;;;22.83;18.63;;;11.00;99.90;;;;;;5053258;28;20045;-72
2022/05/04 00:31:54;;;;;;;20.60;16.67;;;11.00;99.90;;;;;;5052768;28;20060;-73
2022/05/04 00:34:21;;;;;;;21.85;17.08;;;11.00;99.90;;;;;;5053799;28;20056;-73
2022/05/04 00:36:48;;;;;;;19.10;17.00;;;11.00;99.90;;;;;;5053404;28;20044;-72
2022/05/04 00:39:15;;;;;;;22.70;17.98;;;11.00;99.90;;;;;;5052931;28;20095;-72
2022/05/04 00:41:41;;;;;;;23.55;18.00;;;11.10;99.90;;;;;;5053920;28;20052;-73
2022/05/04 00:44:08;;;;;;;25.70;17.75;;;11.10;99.90;;;;;;5053793;28;20067;-72
2022/05/04 00:46:35;;;;;;;26.25;19.45;;;11.10;99.90;;;;;;5053700;28;20412;-73
2022/05/04 00:49:02;;;;;;;21.10;18.10;;;11.10;99.90;;;;;;5053337;28;20123;-72
2022/05/04 00:51:29;;;;;;;27.00;20.42;;;11.10;99.90;;;;;;5053048;28;20041;-72
2022/05/04 00:53:56;;;;;;;25.80;19.60;;;11.10;99.90;;;;;;5052662;28;20484;-72
2022/05/04 00:56:23;;;;;;;27.45;19.92;;;11.10;99.90;;;;;;5052250;28;20045;-72
2022/05/04 00:58:55;;;;;;;25.13;19.13;;;11.10;99.90;;;;;;5052416;28;20045;-73
2022/05/04 01:01:27;;;;;;;28.92;19.55;;;11.10;99.90;;;;;;5052969;28;20048;-73
2022/05/04 01:03:58;;;;;;;28.73;22.42;;;11.10;99.90;;;;;;5035795;28;20044;-73
2022/05/04 01:06:26;;;;;;;29.33;22.85;;;11.10;99.90;;;;;;5053292;28;20468;-73
2022/05/04 01:08:53;;;;;;;30.35;22.23;;;11.10;99.90;;;;;;5051995;28;20045;-73
2022/05/04 01:11:21;;;;;;;29.45;23.02;;;11.10;99.90;;;;;;5036271;28;20055;-73
2022/05/04 01:14:02;;;;;;;34.13;23.73;;;11.10;99.90;;;;;;5051820;28;20048;-72
2022/05/04 01:16:29;;;;;;;35.20;23.63;;;11.10;99.90;;;;;;5052770;28;20056;-72
2022/05/04 01:18:56;;;;;;;30.88;22.98;;;11.10;99.90;;;;;;5052939;28;20064;-72
2022/05/04 01:21:23;;;;;;;33.17;25.75;;;11.10;99.90;;;;;;5052261;28;20071;-72
2022/05/04 01:23:50;;;;;;;37.30;27.15;;;11.10;99.90;;;;;;5053042;28;20064;-72
2022/05/04 01:26:17;;;;;;;34.65;27.48;;;11.10;99.90;;;;;;5051764;28;20041;-73
2022/05/04 01:28:44;;;;;;;41.38;29.20;;;11.10;99.90;;;;;;5051818;28;20140;-73
2022/05/04 01:31:11;;;;;;;39.92;30.05;;;11.10;99.90;;;;;;5052119;28;20068;-73
2022/05/04 01:33:38;;;;;;;41.70;32.35;;;11.10;99.90;;;;;;5051675;28;20151;-73
2022/05/04 01:36:06;;;;;;;42.00;30.10;;;11.10;99.90;;;;;;5052504;28;20053;-73
2022/05/04 01:38:34;;;;;;;46.40;32.60;;;11.10;99.90;;;;;;5051675;28;20040;-72
2022/05/04 01:41:01;;;;;;;45.08;32.80;;;11.10;99.90;;;;;;5051955;28;20435;-73
2022/05/04 01:43:27;;;;;;;46.28;33.08;;;11.10;99.90;;;;;;5052041;28;20049;-72
2022/05/04 01:45:54;;;;;;;50.05;36.58;;;11.10;99.90;;;;;;5051689;28;20052;-72
2022/05/04 01:48:21;;;;;;;49.90;34.22;;;11.10;99.90;;;;;;5053103;28;20452;-64
2022/05/04 01:50:48;;;;;;;50.03;36.45;;;11.10;99.90;;;;;;5051698;28;20472;-71
2022/05/04 01:53:15;;;;;;;50.55;36.13;;;11.10;99.90;;;;;;5053686;28;20037;-73
2022/05/04 01:55:42;;;;;;;46.10;33.35;;;11.10;99.90;;;;;;5052635;28;20045;-73
2022/05/04 01:58:11;;;;;;;47.28;33.90;;;11.10;99.90;;;;;;5051798;28;20492;-74
2022/05/04 02:00:38;;;;;;;;;;;11.10;99.90;;;;;;5052219;28;20041;-74
2022/05/04 02:03:05;;;;;;;50.97;33.17;;;11.10;99.90;;;;;;5052919;28;19917;-74
2022/05/04 02:05:32;;;;;;;49.03;33.15;;;11.10;99.90;;;;;;5053671;28;20063;-74
2022/05/04 02:07:59;;;;;;;45.00;33.70;;;11.10;99.90;;;;;;5051758;28;20049;-74
2022/05/04 02:10:26;;;;;;;49.88;36.30;;;11.10;99.90;;;;;;5051439;28;20397;-74
2022/05/04 02:12:53;;;;;;;53.80;35.53;;;11.20;99.90;;;;;;5051323;28;20056;-73
2022/05/04 02:15:21;;;;;;;50.88;34.55;;;11.20;99.90;;;;;;5055220;28;20139;-73
2022/05/04 02:17:48;;;;;;;51.60;36.08;;;11.20;99.90;;;;;;5056214;28;20051;-72
2022/05/04 02:20:15;;;;;;;53.30;36.13;;;11.20;99.90;;;;;;5055839;28;20128;-73
2022/05/04 02:22:42;;;;;;;51.83;36.42;;;11.20;99.90;;;;;;5055191;28;20041;-73
2022/05/04 02:25:09;;;;;;;53.03;35.58;;;11.20;99.90;;;;;;5056233;28;20067;-74
2022/05/04 02:27:35;;;;;;;46.85;33.88;;;11.20;99.90;;;;;;5055954;28;20468;-74
2022/05/04 02:30:03;;;;;;;55.90;37.42;;;11.20;99.90;;;;;;5055585;28;20488;-74
2022/05/04 02:32:30;;;;;;;50.47;35.70;;;11.20;99.90;;;;;;5057264;28;20041;-74
2022/05/04 02:37:54;;;;;;;52.58;35.85;;;11.20;99.90;;;;;;5055861;28;20400;-73
2022/05/04 02:40:21;;;;;;;51.10;34.92;;;11.20;99.90;;;;;;5056653;28;20044;-74
2022/05/04 02:42:48;;;;;;;54.92;38.22;;;11.20;99.90;;;;;;5054829;28;20044;-74
2022/05/04 02:45:15;;;;;;;52.83;35.50;;;11.20;99.90;;;;;;5055662;28;20477;-74
2022/05/04 02:47:42;;;;;;;52.15;33.85;;;11.20;99.90;;;;;;5055623;28;20041;-73
2022/05/04 02:50:14;;;;;;;55.67;36.70;;;11.20;99.90;;;;;;5055727;28;20476;-73
2022/05/04 02:52:41;;;;;;;51.63;35.08;;;11.20;99.90;;;;;;5054797;28;20052;-73
2022/05/04 02:55:08;;;;;;;52.13;35.33;;;11.20;99.90;;;;;;5054181;28;20487;-74
2022/05/04 02:57:35;;;;;;;44.60;33.25;;;11.20;99.90;;;;;;5054132;28;20048;-74
2022/05/04 03:00:03;;;;;;;42.85;32.22;;;11.20;99.90;;;;;;5054206;28;20041;-74
2022/05/04 03:02:29;;;;;;;44.75;31.63;;;11.20;99.90;;;;;;5053947;28;20045;-74
2022/05/04 03:05:02;;;;;;;45.20;31.33;;;11.30;99.90;;;;;;5056041;28;20448;-74
2022/05/04 03:07:30;;;;;;;45.83;33.05;;;11.30;99.90;;;;;;5054193;28;20091;-74
2022/05/04 03:09:57;;;;;;;43.00;29.80;;;11.30;99.90;;;;;;5054260;28;20048;-74
2022/05/04 03:12:24;;;;;;;46.67;31.63;;;11.30;99.90;;;;;;5055673;28;20071;-73
2022/05/04 03:14:51;;;;;;;45.95;33.60;;;11.40;99.90;;;;;;5054894;28;20053;-73
2022/05/04 03:17:18;;;;;;;44.30;32.20;;;11.40;99.90;;;;;;5054681;28;20041;-73
2022/05/04 03:19:45;;;;;;;44.38;31.50;;;11.40;99.90;;;;;;5053827;28;20476;-73
2022/05/04 03:22:12;;;;;;;42.90;30.48;;;11.40;99.90;;;;;;5054975;28;20048;-73
2022/05/04 03:24:39;;;;;;;42.03;30.58;;;11.40;99.90;;;;;;5055449;28;20049;-74
2022/05/04 03:27:07;;;;;;;42.75;30.92;;;11.40;99.90;;;;;;5055005;28;20464;-74
2022/05/04 03:29:34;;;;;;;45.13;32.13;;;11.50;99.90;;;;;;5054491;28;20045;-74
2022/05/04 03:32:03;;;;;;;39.78;28.33;;;11.50;99.90;;;;;;5053612;28;20044;-73
2022/05/04 03:34:30;;;;;;;37.23;28.53;;;11.50;99.90;;;;;;5054797;28;20049;-74
2022/05/04 03:37:00;;;;;;;45.13;28.52;;;11.40;99.90;;;;;;5054682;28;20270;-73
2022/05/04 03:39:27;;;;;;;35.90;27.10;;;11.50;99.90;;;;;;5054970;28;20365;-74
2022/05/04 03:41:54;;;;;;;37.92;27.38;;;11.50;99.90;;;;;;5055402;28;20041;-74
2022/05/04 03:44:21;;;;;;;35.85;26.52;;;11.50;99.90;;;;;;5054929;28;20374;-73
2022/05/04 03:46:52;;;;;;;39.28;27.25;;;11.50;99.90;;;;;;5054746;28;20048;-73
2022/05/04 03:49:20;;;;;;;34.55;26.67;;;11.40;99.90;;;;;;5054516;28;20135;-73
2022/05/04 03:51:47;;;;;;;36.88;26.27;;;11.40;99.90;;;;;;5053177;28;20053;-73
2022/05/04 03:54:16;;;;;;;34.88;27.38;;;11.40;99.90;;;;;;5054684;28;20338;-73
2022/05/04 03:56:43;;;;;;;33.10;27.17;;;11.40;99.90;;;;;;5054860;28;20041;-73
2022/05/04 03:59:10;;;;;;;34.72;24.48;;;11.40;99.90;;;;;;5054383;28;20049;-74
2022/05/04 04:01:36;;;;;;;34.47;25.42;;;11.40;99.90;;;;;;5054286;28;20045;-73
2022/05/04 04:04:04;;;;;;;35.38;26.35;;;11.40;99.90;;;;;;5053501;28;20045;-74
2022/05/04 04:06:32;;;;;;;38.45;27.15;;;11.40;99.90;;;;;;5054132;28;20186;-74
2022/05/04 04:09:00;;;;;;;39.27;26.87;;;11.40;99.90;;;;;;5053126;28;20131;-73
2022/05/04 04:11:27;;;;;;;31.13;24.48;;;11.40;99.90;;;;;;5054069;28;20051;-73
2022/05/04 04:13:54;;;;;;;39.20;27.38;;;11.40;99.90;;;;;;5054148;28;20041;-73
2022/05/04 04:16:21;;;;;;;37.75;27.15;;;11.40;99.90;;;;;;5053924;28;20040;-74
2022/05/04 04:18:48;;;;;;;37.13;28.10;;;11.40;99.90;;;;;;5052667;28;20048;-74
2022/05/04 04:24:00;;;;;;;31.75;25.52;;;11.40;99.90;;;;;;5053826;28;20045;-73
2022/05/04 04:26:27;;;;;;;38.80;29.92;;;11.30;99.90;;;;;;5053088;28;20044;-74
2022/05/04 04:28:54;;;;;;;31.77;26.48;;;11.40;99.90;;;;;;5052542;28;20476;-73
2022/05/04 04:31:21;;;;;;;34.45;26.63;;;11.40;99.90;;;;;;5054000;28;20041;-74
2022/05/04 04:33:49;;;;;;;38.70;27.42;;;11.30;99.90;;;;;;5052518;28;20044;-73
2022/05/04 04:36:16;;;;;;;40.55;29.67;;;11.30;99.90;;;;;;5053320;28;20041;-73
2022/05/04 04:38:42;;;;;;;37.97;29.40;;;11.30;99.90;;;;;;5052317;28;20472;-73
2022/05/04 04:41:09;;;;;;;35.40;27.38;;;11.30;99.90;;;;;;5052586;28;20388;-74
2022/05/04 04:43:36;;;;;;;36.97;28.65;;;11.30;99.90;;;;;;5052803;28;20457;-74
2022/05/04 04:46:03;;;;;;;37.70;27.70;;;11.30;99.90;;;;;;5052541;28;20049;-73
2022/05/04 04:48:30;;;;;;;40.90;30.40;;;11.20;99.90;;;;;;5054209;28;20403;-73
2022/05/04 04:50:57;;;;;;;40.33;30.42;;;11.30;99.90;;;;;;5052495;28;20044;-74
2022/05/04 04:53:25;;;;;;;38.47;30.30;;;11.20;99.90;;;;;;5052076;28;20045;-74
2022/05/04 04:55:52;;;;;;;35.78;28.45;;;11.20;99.90;;;;;;5053179;28;20059;-74
2022/05/04 04:58:19;;;;;;;39.60;31.02;;;11.10;99.90;;;;;;5052053;28;20051;-75
2022/05/04 05:00:46;;;;;;;38.53;28.63;;;11.10;99.90;;;;;;5036650;28;20049;-75
2022/05/04 05:03:12;;;;;;;40.58;29.98;;;11.10;99.90;;;;;;5054053;28;20052;-74
2022/05/04 05:05:41;;;;;;;40.17;30.08;;;11.10;99.90;;;;;;5053463;28;20053;-74
2022/05/04 05:08:08;;;;;;;38.72;31.02;;;11.00;99.90;;;;;;5052262;28;20037;-74
2022/05/04 05:10:36;;;;;;;36.78;30.02;;;11.00;99.90;;;;;;5052694;28;20048;-74
2022/05/04 05:13:03;;;;;;;38.92;29.50;;;11.10;99.90;;;;;;5052610;28;20049;-74
2022/05/04 05:18:18;;;;;;;44.20;32.03;;;11.10;99.90;;;;;;5052063;28;20435;-74
2022/05/04 05:20:45;;;;;;;39.28;29.77;;;11.10;99.90;;;;;;5052822;28;20052;-74
2022/05/04 05:23:12;;;;;;;40.63;31.52;;;11.10;99.90;;;;;;5051857;28;20053;-74
2022/05/04 05:25:39;;;;;;;42.53;30.58;;;11.10;99.90;;;;;;5052010;28;20048;-74
2022/05/04 05:28:06;;;;;;;40.83;31.13;;;11.10;99.90;;;;;;5051865;28;20044;-73
2022/05/04 05:30:33;;;;;;;37.10;29.50;;;11.10;99.90;;;;;;5053176;28;20045;-74
2022/05/04 05:33:00;;;;;;;41.22;30.80;;;11.20;99.90;;;;;;5053665;28;20045;-74
2022/05/04 05:35:27;;;;;;;44.30;30.08;;;11.20;99.90;;;;;;5053482;28;20040;-74
2022/05/04 05:37:54;;;;;;;39.83;28.77;;;11.20;99.90;;;;;;5053933;28;20114;-74
2022/05/04 05:40:21;;;;;;;41.03;31.60;;;11.30;99.90;;;;;;5054185;28;20045;-74
2022/05/04 05:42:48;;;;;;;39.60;30.58;;;11.30;99.90;;;;;;5051666;28;20040;-77
2022/05/04 05:45:15;;;;;;;353.63;294.20;;;11.30;99.90;;;;;;5053016;28;20045;-67
2022/05/04 05:47:42;;;;;;;104.70;82.40;;;11.40;99.90;;;;;;5051549;28;20056;-68
2022/05/04 05:50:10;;;;;;;57.78;47.53;;;11.50;99.90;;;;;;5055179;28;20064;-67
2022/05/04 05:52:37;;;;;;;50.42;37.28;;;11.50;99.90;;;;;;5056864;28;20052;-71
2022/05/04 05:55:04;;;;;;;42.67;31.20;;;11.50;99.90;;;;;;5056604;28;20056;-72
2022/05/04 05:57:33;;;;;;;44.00;32.67;;;11.60;99.90;;;;;;5056177;28;20045;-72
2022/05/04 06:00:01;;;;;;;42.60;31.75;;;11.60;99.90;;;;;;5056698;28;20037;-77
2022/05/04 06:02:28;;;;;;;43.92;32.38;;;11.60;99.90;;;;;;5055495;28;20037;-76
2022/05/04 06:04:55;;;;;;;46.40;33.85;;;11.50;99.90;;;;;;5055475;28;20055;-75
2022/05/04 06:07:22;;;;;;;82.10;63.05;;;11.50;99.90;;;;;;5055794;28;20052;-72
2022/05/04 06:09:49;;;;;;;69.78;53.72;;;11.60;99.90;;;;;;5055221;28;20488;-67
2022/05/04 06:12:17;;;;;;;44.30;35.13;;;11.60;99.90;;;;;;5055016;28;20045;-68
2022/05/04 06:14:44;;;;;;;44.83;33.30;;;11.60;99.90;;;;;;5056864;28;20044;-67
2022/05/04 06:17:11;;;;;;;44.40;32.90;;;11.70;99.90;;;;;;5056987;28;20037;-67
2022/05/04 06:19:38;;;;;;;45.47;33.95;;;11.70;99.90;;;;;;5056921;28;20119;-66
2022/05/04 06:22:05;;;;;;;50.13;34.53;;;11.80;99.90;;;;;;5055188;28;20041;-68
2022/05/04 06:24:32;;;;;;;39.08;31.02;;;11.80;99.90;;;;;;5054777;28;20056;-69
2022/05/04 06:26:59;;;;;;;44.20;32.40;;;11.80;99.90;;;;;;5056537;28;20049;-68
2022/05/04 06:34:56;;;;;;;42.92;33.30;;;11.90;99.90;;;;;;5054695;28;20047;-65
2022/05/04 06:37:23;;;;;;;43.45;32.40;;;12.00;99.90;;;;;;5054514;28;20041;-71
2022/05/04 06:39:50;;;;;;;44.30;32.20;;;12.00;99.90;;;;;;5055153;28;20464;-72
2022/05/04 06:42:18;;;;;;;42.30;34.35;;;12.10;99.90;;;;;;5056032;28;20067;-70
2022/05/04 06:44:45;;;;;;;40.92;31.40;;;12.10;99.90;;;;;;5054508;28;20048;-71
2022/05/04 06:47:12;;;;;;;44.28;32.72;;;12.20;99.90;;;;;;5056160;28;20051;-70
2022/05/04 06:49:39;;;;;;;41.95;32.40;;;12.30;99.90;;;;;;5055591;28;20049;-70
2022/05/04 06:52:06;;;;;;;47.70;34.95;;;12.30;99.90;;;;;;5054373;28;20041;-70
2022/05/04 06:54:34;;;;;;;42.63;33.08;;;12.40;99.90;;;;;;5055340;28;20052;-74
2022/05/04 06:57:01;;;;;;;44.33;33.15;;;12.40;99.90;;;;;;5054320;28;20045;-66
2022/05/04 06:59:27;;;;;;;42.10;33.65;;;12.50;99.90;;;;;;5055241;28;20037;-68
2022/05/04 07:01:55;;;;;;;45.25;34.50;;;12.60;99.90;;;;;;5054877;28;20037;-69
2022/05/04 07:04:22;;;;;;;46.75;35.20;;;12.70;99.90;;;;;;5037852;28;20049;-74
2022/05/04 07:06:49;;;;;;;48.25;36.90;;;12.80;99.90;;;;;;5054097;28;20037;-73
2022/05/04 07:09:16;;;;;;;43.05;34.47;;;12.80;99.90;;;;;;5055163;28;20147;-72
2022/05/04 07:11:43;;;;;;;45.80;34.40;;;13.00;99.90;;;;;;5054909;28;20045;-83
2022/05/04 07:14:16;;;;;;;42.05;34.03;;;13.00;99.90;;;;;;5055708;28;20525;-79
2022/05/04 07:16:43;;;;;;;50.92;36.70;;;13.10;99.90;;;;;;5055771;28;20080;-81
2022/05/04 07:19:13;;;;;;;53.40;35.95;;;13.10;99.90;;;;;;5055828;28;20481;-87
2022/05/04 07:21:42;;;;;;;47.72;36.58;;;13.20;99.90;;;;;;5054476;28;20136;-83
2022/05/04 07:24:10;;;;;;;44.58;35.33;;;13.30;99.90;;;;;;5055191;28;20129;-77
2022/05/04 07:26:41;;;;;;;50.87;37.20;;;13.30;99.90;;;;;;5055860;28;20059;-81
2022/05/04 07:29:08;;;;;;;48.80;37.53;;;13.30;99.90;;;;;;5053960;28;20131;-71
2022/05/04 07:31:40;;;;;;;57.78;45.22;;;13.40;99.90;;;;;;5055022;28;20041;-74
2022/05/04 07:34:07;;;;;;;65.68;52.28;;;13.40;99.90;;;;;;5054698;28;20087;-73
2022/05/04 07:36:33;;;;;;;50.90;37.78;;;13.50;99.90;;;;;;5055600;28;20049;-71
2022/05/04 07:39:00;;;;;;;53.20;39.05;;;13.60;99.90;;;;;;5055772;28;20049;-72
2022/05/04 07:44:12;;;;;;;50.75;39.92;;;13.70;99.90;;;;;;5053666;28;20045;-73
2022/05/04 07:46:41;;;;;;;51.42;39.40;;;13.90;99.90;;;;;;5053608;28;20056;-71
2022/05/04 07:49:08;;;;;;;59.47;41.65;;;14.00;99.90;;;;;;5054326;28;20472;-72
2022/05/04 07:51:35;;;;;;;53.67;42.20;;;14.20;99.90;;;;;;5054011;28;20045;-71
2022/05/04 07:54:03;;;;;;;54.65;41.58;;;14.40;99.90;;;;;;5053234;28;20505;-72
2022/05/04 07:56:30;;;;;;;54.42;39.50;;;14.50;99.90;;;;;;5053349;28;20119;-70
2022/05/04 07:58:57;;;;;;;53.70;41.65;;;14.70;99.90;;;;;;5053384;28;20067;-71
2022/05/04 08:04:20;;;;;;;51.05;38.78;;;15.00;99.90;;;;;;5054020;28;20041;-72
2022/05/04 08:06:48;;;;;;;49.83;39.90;;;15.10;99.90;;;;;;5054257;28;20053;-73
2022/05/04 08:09:15;;;;;;;46.92;37.20;;;15.30;99.90;;;;;;5036446;28;20047;-72
2022/05/04 08:11:41;;;;;;;48.17;36.53;;;15.40;99.90;;;;;;5054889;28;20044;-71
2022/05/04 08:14:09;;;;;;;49.63;36.90;;;15.50;99.90;;;;;;5053550;28;20044;-70
2022/05/04 08:16:37;;;;;;;45.55;36.72;;;15.60;99.90;;;;;;5052938;28;20041;-72
2022/05/04 08:19:04;;;;;;;48.83;38.20;;;15.60;99.90;;;;;;5052667;28;20047;-71
2022/05/04 08:21:31;;;;;;;54.28;41.92;;;15.60;99.90;;;;;;5036212;28;20045;-71
2022/05/04 08:23:58;;;;;;;43.85;35.25;;;15.60;99.90;;;;;;5054770;28;20045;-68
2022/05/04 08:26:39;;;;;;;45.30;35.33;;;15.60;99.90;;;;;;5053385;28;20571;-69
2022/05/04 08:29:07;;;;;;;43.20;35.15;;;15.70;99.90;;;;;;5053674;28;20040;-67
2022/05/04 08:31:36;;;;;;;43.15;35.00;;;15.90;99.90;;;;;;5054440;28;20044;-73
2022/05/04 08:34:03;;;;;;;46.10;35.22;;;16.00;99.90;;;;;;5052426;28;20044;-73
2022/05/04 08:36:30;;;;;;;46.90;37.58;;;16.10;99.90;;;;;;5053519;28;20472;-73
2022/05/04 08:38:57;;;;;;;46.28;34.88;;;16.10;99.90;;;;;;5053871;28;20040;-79
2022/05/04 08:41:24;;;;;;;45.15;34.70;;;16.20;99.90;;;;;;5054402;28;20045;-81
2022/05/04 08:43:51;;;;;;;45.60;35.08;;;16.20;99.90;;;;;;5054040;28;20045;-81
2022/05/04 08:46:18;;;;;;;45.05;33.75;;;16.30;99.90;;;;;;5053145;28;20048;-81
2022/05/04 08:48:45;;;;;;;45.05;34.42;;;16.50;99.90;;;;;;5053003;28;20047;-81
2022/05/04 08:51:13;;;;;;;40.47;33.25;;;16.50;99.90;;;;;;5052265;28;20052;-81
2022/05/04 08:53:42;;;;;;;44.40;32.60;;;16.60;99.90;;;;;;5052671;28;20037;-81
2022/05/04 08:56:09;;;;;;;;;;;16.70;99.90;;;;;;5054310;28;20040;-82
2022/05/04 08:58:39;;;;;;;39.67;31.35;;;16.80;99.90;;;;;;5054249;28;19917;-82
2022/05/04 09:01:05;;;;;;;39.30;31.90;;;16.90;99.90;;;;;;5053054;28;20075;-82
2022/05/04 09:03:32;;;;;;;40.63;32.58;;;17.10;99.90;;;;;;5053333;28;20056;-83
2022/05/04 09:06:00;;;;;;;40.80;31.75;;;17.20;99.90;;;;;;5053651;28;20415;-83
2022/05/04 09:08:56;;;;;;;39.92;31.30;;;17.30;99.90;;;;;;5053187;28;20045;-82
2022/05/04 09:11:23;;;;;;;36.38;30.05;;;17.50;99.90;;;;;;5054306;28;20049;-81
2022/05/04 09:13:50;;;;;;;38.42;29.80;;;17.50;99.90;;;;;;5052155;28;20073;-81
2022/05/04 09:16:32;;;;;;;34.80;29.13;;;17.50;99.90;;;;;;5053335;28;20076;-80
2022/05/04 09:19:05;;;;;;;34.42;27.02;;;17.80;99.90;;;;;;5052306;28;20468;-80
2022/05/04 09:21:32;;;;;;;40.38;29.55;;;17.80;99.90;;;;;;5054093;28;20045;-82
2022/05/04 09:23:59;;;;;;;35.17;29.50;;;17.80;99.90;;;;;;5054843;28;20052;-82
2022/05/04 09:26:26;;;;;;;36.78;29.27;;;17.70;99.90;;;;;;5057647;28;20041;-82
2022/05/04 09:29:00;;;;;;;33.97;28.00;;;17.80;99.90;;;;;;5057617;28;20056;-82
2022/05/04 09:31:28;;;;;;;36.28;28.00;;;17.80;99.90;;;;;;5056446;28;20151;-82
2022/05/04 09:33:57;;;;;;;33.30;27.00;;;17.90;99.90;;;;;;5057407;28;20552;-82
2022/05/04 09:36:36;;;;;;;32.72;26.88;;;18.00;99.90;;;;;;5057485;28;20052;-82
2022/05/04 09:44:57;;;;;;;31.23;24.58;;;18.00;99.90;;;;;;5056982;28;20059;-82
2022/05/04 09:47:24;;;;;;;27.45;21.85;;;18.00;99.90;;;;;;5056150;28;20147;-81
2022/05/04 09:49:53;;;;;;;26.42;19.45;;;18.00;99.90;;;;;;5056237;28;20060;-81
2022/05/04 09:52:22;;;;;;;24.92;21.10;;;18.10;99.90;;;;;;5040109;28;20061;-82
2022/05/04 09:54:49;;;;;;;25.25;19.95;;;18.20;99.90;;;;;;5055984;28;20041;-82
2022/05/04 09:57:16;;;;;;;26.00;22.27;;;18.30;99.90;;;;;;5055642;28;20064;-82
2022/05/04 09:59:43;;;;;;;23.13;19.55;;;18.30;99.90;;;;;;5055949;28;20048;-82
2022/05/04 10:02:10;;;;;;;23.13;19.58;;;18.40;99.90;;;;;;5055521;28;20045;-82
2022/05/04 10:04:37;;;;;;;26.30;20.17;;;18.60;99.90;;;;;;5055461;28;20051;-83
2022/05/04 10:07:09;;;;;;;23.20;20.70;;;18.90;99.90;;;;;;5056496;28;20087;-83
2022/05/04 10:09:36;;;;;;;25.20;20.70;;;19.10;99.90;;;;;;5056376;28;20045;-79
2022/05/04 10:12:03;;;;;;;27.42;20.92;;;19.20;99.90;;;;;;5055715;28;20052;-77
2022/05/04 10:14:30;;;;;;;23.77;19.55;;;19.30;99.90;;;;;;5055514;28;20041;-74
2022/05/04 10:17:14;;;;;;;114.70;103.05;;;19.50;99.90;;;;;;5056591;28;20056;-77
2022/05/04 10:19:52;;;;;;;26.92;23.20;;;19.60;99.90;;;;;;5055859;28;20111;-75
2022/05/04 10:22:24;;;;;;;23.92;19.15;;;19.70;99.90;;;;;;5055112;28;20123;-76
2022/05/04 10:24:51;;;;;;;19.63;17.42;;;19.80;99.90;;;;;;5055995;28;20055;-76
2022/05/04 10:27:21;;;;;;;24.30;19.85;;;19.80;99.90;;;;;;5055081;28;20472;-75
2022/05/04 10:32:38;;;;;;;20.92;17.60;;;19.60;99.90;;;;;;5056312;28;20051;-74
2022/05/04 10:35:08;;;;;;;24.67;19.27;;;19.40;99.90;;;;;;5055239;28;20056;-73
2022/05/04 10:37:54;;;;;;;19.08;15.65;;;19.40;99.90;;;;;;5055524;28;20041;-71
2022/05/04 10:40:35;;;;;;;72.53;64.82;;;19.40;99.90;;;;;;5055138;28;20048;-75
2022/05/04 10:43:07;;;;;;;25.02;20.60;;;19.60;98.90;;;;;;5055711;28;20106;-75
2022/05/04 10:45:38;;;;;;;19.08;15.68;;;19.80;98.70;;;;;;5055524;28;20056;-67
2022/05/04 10:48:15;;;;;;;19.60;14.75;;;19.80;96.30;;;;;;5054778;28;20464;-65
2022/05/04 10:51:00;;;;;;;18.30;16.10;;;19.80;94.60;;;;;;5056344;28;20049;-64
2022/05/04 10:53:27;;;;;;;18.38;15.48;;;19.80;95.70;;;;;;5054663;28;20041;-67
2022/05/04 10:55:55;;;;;;;20.33;15.88;;;19.60;97.60;;;;;;5055999;28;20460;-68
2022/05/04 10:58:34;;;;;;;19.83;16.30;;;19.60;97.80;;;;;;5056544;28;20064;-67
2022/05/04 11:01:14;;;;;;;16.90;15.10;;;19.60;95.60;;;;;;5055420;28;20049;-66
2022/05/04 11:04:08;;;;;;;18.67;15.07;;;19.50;98.60;;;;;;5055459;28;20041;-66
2022/05/04 11:06:45;;;;;;;14.52;11.95;;;19.40;97.10;;;;;;5055298;28;20472;-70
2022/05/04 11:09:16;;;;;;;12.80;11.32;;;19.40;95.10;;;;;;5056385;28;20045;-70
2022/05/04 11:11:47;;;;;;;13.27;11.18;;;19.40;92.80;;;;;;5054047;28;20048;-70
2022/05/04 11:14:15;;;;;;;52.65;47.67;;;19.40;93.30;;;;;;5055668;28;20060;-68
2022/05/04 11:16:43;;;;;;;42.17;36.88;;;19.40;92.40;;;;;;5054650;28;20045;-72
2022/05/04 11:19:14;;;;;;;16.17;14.47;;;19.40;92.70;;;;;;5055442;28;20404;-73
2022/05/04 11:21:41;;;;;;;19.95;12.88;;;19.40;93.20;;;;;;5055367;28;20052;-71
2022/05/04 11:24:09;;;;;;;18.30;14.18;;;19.40;98.00;;;;;;5053821;28;20049;-72
2022/05/04 11:26:41;;;;;;;17.57;13.43;;;19.20;99.90;;;;;;5053983;28;20047;-72
2022/05/04 11:29:20;;;;;;;16.85;13.55;;;19.00;99.90;;;;;;5038859;28;20044;-72
2022/05/04 11:31:56;;;;;;;16.40;12.35;;;18.60;99.90;;;;;;5054930;28;20055;-71
2022/05/04 11:34:24;;;;;;;12.20;10.30;;;18.30;99.90;;;;;;5055925;28;20057;-71
2022/05/04 11:36:52;;;;;;;10.52;9.15;;;18.20;99.90;;;;;;5054715;28;20436;-71
2022/05/04 11:39:21;;;;;;;11.30;9.02;;;18.10;99.90;;;;;;5054566;28;20045;-71
2022/05/04 11:41:49;;;;;;;;;;;18.00;99.90;;;;;;5053808;28;20041;-71
2022/05/04 11:44:18;;;;;;;11.30;8.02;;;17.90;99.90;;;;;;5054497;28;19923;-71
2022/05/04 11:46:47;;;;;;;10.23;7.75;;;17.90;99.90;;;;;;5052366;28;20128;-71
2022/05/04 11:49:14;;;;;;;7.90;7.10;;;17.80;99.90;;;;;;5053029;28;20071;-71
2022/05/04 11:51:42;;;;;;;12.27;9.65;;;17.80;99.90;;;;;;5055195;28;20281;-71
2022/05/04 11:54:08;;;;;;;10.95;8.30;;;17.70;99.90;;;;;;5055399;28;20041;-71
2022/05/04 11:56:35;;;;;;;12.60;8.63;;;17.80;99.90;;;;;;5036607;28;20429;-71
2022/05/04 11:59:02;;;;;;;13.70;9.60;;;17.80;99.90;;;;;;5053960;28;20041;-71
2022/05/04 12:01:30;;;;;;;12.55;9.93;;;17.70;99.90;;;;;;5055602;28;20368;-71
2022/05/04 12:03:56;;;;;;;146.25;121.90;;;17.70;99.90;;;;;;5054330;28;20044;-70
2022/05/04 12:06:23;;;;;;;164.20;147.27;;;17.60;99.90;;;;;;5053396;28;20068;-70
2022/05/04 12:08:50;;;;;;;23.73;20.42;;;17.50;99.90;;;;;;5053981;28;20041;-69
2022/05/04 12:11:17;;;;;;;12.13;9.75;;;17.50;99.90;;;;;;5053662;28;20091;-70
2022/05/04 12:13:44;;;;;;;9.63;8.07;;;17.50;99.90;;;;;;5053725;28;20063;-70
2022/05/04 12:16:11;;;;;;;8.15;7.20;;;17.40;99.90;;;;;;5053825;28;20053;-70
2022/05/04 12:18:41;;;;;;;10.55;6.47;;;17.40;99.90;;;;;;5053555;28;20090;-70
2022/05/04 12:21:09;;;;;;;;;;;17.50;99.90;;;;;;5053945;28;20041;-70
2022/05/04 12:23:38;;;;;;;9.73;7.32;;;17.50;99.90;;;;;;5053458;28;19924;-70
2022/05/04 12:26:04;;;;;;;9.05;6.90;;;17.50;99.90;;;;;;5052940;28;20056;-70
2022/05/04 12:28:32;;;;;;;7.90;7.10;;;17.70;99.90;;;;;;5052616;28;20484;-70
2022/05/04 12:33:48;;;;;;;8.27;7.40;;;18.00;99.90;;;;;;5054329;28;20072;-70
2022/05/04 12:36:16;;;;;;;;;;;18.20;99.90;;;;;;5054107;28;20051;-70
2022/05/04 12:38:46;;;;;;;8.63;7.72;;;18.20;99.90;;;;;;5053926;28;20356;-70
2022/05/04 12:41:15;;;;;;;9.05;8.20;;;18.30;99.90;;;;;;5053636;28;20044;-70
2022/05/04 12:43:42;;;;;;;9.63;8.15;;;18.40;99.90;;;;;;5053401;28;20056;-70
2022/05/04 12:46:10;;;;;;;10.35;8.43;;;18.40;99.90;;;;;;5053145;28;20049;-71
2022/05/04 12:48:41;;;;;;;9.30;8.30;;;18.50;99.90;;;;;;5052277;28;20071;-71
2022/05/04 12:51:08;;;;;;;9.25;8.35;;;18.50;99.50;;;;;;5035587;28;20377;-70
2022/05/04 12:53:38;;;;;;;8.38;7.50;;;18.50;99.90;;;;;;5053709;28;20103;-70
2022/05/04 12:58:50;;;;;;;8.88;7.88;;;18.50;99.90;;;;;;5053992;28;19923;-70
2022/05/04 13:01:21;;;;;;;12.02;9.60;;;18.40;99.90;;;;;;5052062;28;20052;-70
2022/05/04 13:03:49;;;;;;;201.18;180.10;;;18.60;99.90;;;;;;5052176;28;20041;-71
2022/05/04 13:06:17;;;;;;;23.80;21.42;;;18.70;99.90;;;;;;5052267;28;20041;-72
2022/05/04 13:08:44;;;;;;;11.65;10.45;;;18.90;99.90;;;;;;5052991;28;20052;-71